If you wish to contribute or participate in the discussions about articles you are invited to join SKYbrary as a registered user

 Actions

Cherbourg-Maupertus Airport

From SKYbrary Wiki

LFRC
Airport
ICAO: LFRC – IATA: CER
Summary
Name Cherbourg-Maupertus Airport
Region Europe
Territory France FR.gif
Location , Basse-Normandie
Serving Cherbourg
Elevation 139.903 m
459 ft
459 ft139.903 m
Type medium airport
Coordinates 49° 39' 0.38" N, 1° 28' 13.01" W
Runways
Designator Length Width Surface ROPS
10/28 2440 m8,005.249 ft
45 m147.638 ft
ASP /


METAR
Observation LFRC 101130Z AUTO 20024G37KT 9999 OVC008/// ///TCU 07/06 Q1017
Station Cherbourg / Maupertus
Date/Time 10 December 2019 11:30:00
Wind direction 200°
Wind speed 24 kts
Lowest cloud amount overcast
Temperature 7°C
Dew point 6°C
Humidity 93%
QNH 1017 hPa
Weather condition n/a